Time;durP1;ratioP1;P1;durP2;ratioP2;P2;SDS_P1;SDS_P2;PMS_P1;PMS_P2;Temp;Humidity;BMP_temperature;BMP_pressure;BME280_temperature;BME280_humidity;BME280_pressure;Samples;Min_cycle;Max_cycle;Signal;HPM_P1;HPM_P2
2021/11/06 00:00:31;;;;;;;;;;;7.40;36.90;;;;;;4386445;32;19974;-38
2021/11/06 00:02:57;;;;;;;;;;;7.40;37.10;;;;;;4386061;32;19977;-38
2021/11/06 00:05:24;;;;;;;;;;;7.40;37.20;;;;;;4386114;32;19968;-39
2021/11/06 00:07:50;;;;;;;;;;;7.30;37.20;;;;;;4388147;32;19996;-36
2021/11/06 00:10:16;;;;;;;;;;;7.30;37.50;;;;;;4388654;32;19995;-37
2021/11/06 00:12:43;;;;;;;;;;;7.20;37.70;;;;;;4388156;32;19982;-39
2021/11/06 00:15:10;;;;;;;;;;;7.20;37.70;;;;;;4388069;32;20066;-38
2021/11/06 00:17:37;;;;;;;;;;;7.20;37.70;;;;;;4388275;32;20439;-37
2021/11/06 00:20:04;;;;;;;;;;;7.10;38.00;;;;;;4388364;32;19985;-38
2021/11/06 00:22:32;;;;;;;;;;;7.10;38.50;;;;;;4388361;32;20042;-38
2021/11/06 00:24:59;;;;;;;;;;;7.10;38.10;;;;;;4388048;32;20369;-39
2021/11/06 00:27:26;;;;;;;;;;;7.10;38.40;;;;;;4388495;32;19982;-38
2021/11/06 00:29:52;;;;;;;;;;;7.10;38.60;;;;;;4388243;32;19992;-37
2021/11/06 00:32:18;;;;;;;;;;;7.00;38.80;;;;;;4388096;32;20056;-38
2021/11/06 00:34:45;;;;;;;;;;;7.00;39.00;;;;;;4388094;32;20045;-37
2021/11/06 00:37:11;;;;;;;;;;;7.00;39.00;;;;;;4388372;32;19997;-37
2021/11/06 00:39:37;;;;;;;;;;;6.90;39.30;;;;;;4388022;32;20001;-38
2021/11/06 00:42:03;;;;;;;;;;;6.90;39.40;;;;;;4388890;32;20414;-38
2021/11/06 00:44:30;;;;;;;;;;;6.90;39.20;;;;;;4390986;32;19957;-38
2021/11/06 00:46:57;;;;;;;;;;;6.90;38.90;;;;;;4376452;32;19966;-39
2021/11/06 00:49:23;;;;;;;;;;;6.90;38.90;;;;;;4375376;32;20468;-38
2021/11/06 00:51:50;;;;;;;;;;;6.90;39.00;;;;;;4376395;32;19986;-38
2021/11/06 00:54:16;;;;;;;;;;;6.90;39.30;;;;;;4375438;32;19966;-38
2021/11/06 00:56:43;;;;;;;;;;;6.90;39.50;;;;;;4375566;32;20005;-38
2021/11/06 00:59:09;;;;;;;;;;;6.90;39.60;;;;;;4375619;32;19986;-36
2021/11/06 01:01:37;;;;;;;;;;;6.90;40.10;;;;;;4375559;32;19973;-37
2021/11/06 01:04:04;;;;;;;;;;;6.90;40.10;;;;;;4375462;32;20401;-38
2021/11/06 01:06:31;;;;;;;;;;;7.00;40.40;;;;;;4342763;32;20044;-38
2021/11/06 01:08:57;;;;;;;;;;;7.00;40.80;;;;;;4343105;32;20378;-38
2021/11/06 01:11:23;;;;;;;;;;;6.90;40.70;;;;;;4343121;32;19978;-36
2021/11/06 01:13:50;;;;;;;;;;;6.90;40.80;;;;;;4343233;33;20060;-38
2021/11/06 01:16:17;;;;;;;;;;;6.90;41.00;;;;;;4343412;32;20058;-38
2021/11/06 01:18:43;;;;;;;;;;;6.90;40.70;;;;;;4343071;32;19977;-37
2021/11/06 01:21:09;;;;;;;;;;;6.90;40.40;;;;;;4342984;33;19998;-38
2021/11/06 01:23:35;;;;;;;;;;;6.80;40.40;;;;;;4342581;33;20413;-37
2021/11/06 01:26:04;;;;;;;;;;;6.80;40.30;;;;;;4343033;33;20404;-37
2021/11/06 01:28:31;;;;;;;;;;;6.80;40.50;;;;;;4342622;33;20428;-38
2021/11/06 01:30:57;;;;;;;;;;;6.70;40.50;;;;;;4342836;33;19979;-38
2021/11/06 01:33:23;;;;;;;;;;;6.80;40.30;;;;;;4330440;33;19967;-39
2021/11/06 01:35:49;;;;;;;;;;;6.70;40.00;;;;;;4343070;33;20060;-38
2021/11/06 01:38:16;;;;;;;;;;;6.60;40.00;;;;;;4356906;32;19982;-38
2021/11/06 01:40:43;;;;;;;;;;;6.60;40.40;;;;;;4359940;32;19998;-37
2021/11/06 01:43:09;;;;;;;;;;;6.60;40.60;;;;;;4359845;32;20521;-38
2021/11/06 01:45:35;;;;;;;;;;;6.50;40.50;;;;;;4365606;32;19973;-37
2021/11/06 01:48:01;;;;;;;;;;;6.50;40.50;;;;;;4375038;32;20042;-38
2021/11/06 01:50:27;;;;;;;;;;;6.50;41.10;;;;;;4374314;32;20453;-37
2021/11/06 01:52:54;;;;;;;;;;;6.40;41.80;;;;;;4375099;32;19978;-38
2021/11/06 01:55:20;;;;;;;;;;;6.40;42.00;;;;;;4374565;32;19955;-38
2021/11/06 01:57:46;;;;;;;;;;;6.40;41.80;;;;;;4375034;32;20031;-37
2021/11/06 02:00:25;;;;;;;;;;;6.40;42.00;;;;;;4374558;32;20429;-38
2021/11/06 02:02:51;;;;;;;;;;;6.30;42.30;;;;;;4374661;32;19973;-37
2021/11/06 02:05:17;;;;;;;;;;;6.30;42.70;;;;;;4374555;32;20050;-38
2021/11/06 02:07:44;;;;;;;;;;;6.30;42.80;;;;;;4374928;32;19972;-38
2021/11/06 02:10:11;;;;;;;;;;;6.20;43.00;;;;;;4374716;32;19981;-38
2021/11/06 02:12:38;;;;;;;;;;;6.20;43.10;;;;;;4374231;32;20073;-38
2021/11/06 02:15:05;;;;;;;;;;;6.20;43.60;;;;;;4374674;32;19969;-39
2021/11/06 02:17:32;;;;;;;;;;;6.20;43.60;;;;;;4374592;32;19955;-38
2021/11/06 02:19:58;;;;;;;;;;;6.10;43.90;;;;;;4373208;32;19969;-39
2021/11/06 02:22:24;;;;;;;;;;;6.10;44.20;;;;;;4374414;32;20357;-37
2021/11/06 02:24:53;;;;;;;;;;;6.10;44.30;;;;;;4388075;32;20494;-37
2021/11/06 02:27:22;;;;;;;;;;;6.10;44.20;;;;;;4389454;32;19985;-38
2021/11/06 02:29:49;;;;;;;;;;;6.20;44.00;;;;;;4389211;32;19973;-38
2021/11/06 02:32:15;;;;;;;;;;;6.10;43.80;;;;;;4389370;32;19962;-38
2021/11/06 02:34:41;;;;;;;;;;;6.10;44.10;;;;;;4388826;32;20477;-37
2021/11/06 02:37:08;;;;;;;;;;;6.10;44.70;;;;;;4389544;32;20062;-38
2021/11/06 02:39:34;;;;;;;;;;;6.10;44.80;;;;;;4389112;32;19982;-37
2021/11/06 02:42:01;;;;;;;;;;;6.10;44.90;;;;;;4389042;32;20054;-37
2021/11/06 02:44:27;;;;;;;;;;;6.10;45.00;;;;;;4389406;32;19965;-39
2021/11/06 02:46:54;;;;;;;;;;;6.10;44.90;;;;;;4360718;32;19977;-38
2021/11/06 02:49:20;;;;;;;;;;;6.10;45.30;;;;;;4374009;32;19973;-38
2021/11/06 02:51:46;;;;;;;;;;;6.00;45.00;;;;;;4372518;32;19973;-38
2021/11/06 02:54:12;;;;;;;;;;;6.10;45.30;;;;;;4374353;32;19977;-37
2021/11/06 02:56:39;;;;;;;;;;;6.00;45.40;;;;;;4373717;32;20466;-38
2021/11/06 02:59:05;;;;;;;;;;;6.00;44.90;;;;;;4373614;32;20047;-38
2021/11/06 03:01:31;;;;;;;;;;;6.00;44.90;;;;;;4374085;32;19969;-38
2021/11/06 03:03:57;;;;;;;;;;;6.00;45.40;;;;;;4373939;32;19982;-38
2021/11/06 03:06:23;;;;;;;;;;;6.00;45.80;;;;;;4373524;32;20397;-38
2021/11/06 03:08:50;;;;;;;;;;;6.00;45.50;;;;;;4373768;32;20092;-38
2021/11/06 03:11:16;;;;;;;;;;;5.90;45.60;;;;;;4373817;32;19977;-38
2021/11/06 03:13:43;;;;;;;;;;;6.00;45.90;;;;;;4373754;32;20393;-38
2021/11/06 03:16:09;;;;;;;;;;;6.00;45.90;;;;;;4373540;32;20472;-38
2021/11/06 03:18:36;;;;;;;;;;;5.90;45.50;;;;;;4372694;32;19973;-38
2021/11/06 03:21:02;;;;;;;;;;;5.90;45.80;;;;;;4373332;32;19974;-38
2021/11/06 03:23:32;;;;;;;;;;;5.90;45.90;;;;;;4373345;32;19978;-38
2021/11/06 03:25:58;;;;;;;;;;;5.90;45.90;;;;;;4373432;32;19977;-38
2021/11/06 03:28:25;;;;;;;;;;;5.90;45.90;;;;;;4359345;32;19977;-37
2021/11/06 03:30:51;;;;;;;;;;;5.90;45.90;;;;;;4373363;32;20101;-37
2021/11/06 03:33:17;;;;;;;;;;;5.90;46.10;;;;;;4373579;32;20129;-38
2021/11/06 03:35:44;;;;;;;;;;;5.90;46.50;;;;;;4373446;32;19981;-38
2021/11/06 03:38:10;;;;;;;;;;;5.90;46.30;;;;;;4373652;32;20049;-38
2021/11/06 03:40:36;;;;;;;;;;;6.00;46.20;;;;;;4373529;32;19966;-38
2021/11/06 03:43:03;;;;;;;;;;;5.90;45.70;;;;;;4372927;32;20468;-37
2021/11/06 03:45:29;;;;;;;;;;;5.90;46.00;;;;;;4373814;32;20042;-39
2021/11/06 03:47:55;;;;;;;;;;;5.90;45.90;;;;;;4371663;32;20041;-39
2021/11/06 03:50:21;;;;;;;;;;;5.90;45.70;;;;;;4373684;32;19985;-39
2021/11/06 03:52:48;;;;;;;;;;;5.90;45.80;;;;;;4373253;32;19978;-39
2021/11/06 03:55:15;;;;;;;;;;;5.80;45.60;;;;;;4373548;32;19955;-38
2021/11/06 03:57:41;;;;;;;;;;;5.90;46.00;;;;;;4373125;32;20089;-38
2021/11/06 04:00:09;;;;;;;;;;;5.90;46.00;;;;;;4373201;32;19973;-38
2021/11/06 04:02:35;;;;;;;;;;;5.90;46.20;;;;;;4373656;32;19969;-38
2021/11/06 04:05:01;;;;;;;;;;;5.90;46.10;;;;;;4373618;32;20035;-38
2021/11/06 04:07:28;;;;;;;;;;;5.80;46.30;;;;;;4373589;32;19977;-37
2021/11/06 04:09:54;;;;;;;;;;;5.90;46.30;;;;;;4373303;32;20078;-38
2021/11/06 04:12:20;;;;;;;;;;;5.90;46.30;;;;;;4355584;32;19982;-39
2021/11/06 04:14:46;;;;;;;;;;;5.90;46.30;;;;;;4355954;32;20001;-38
2021/11/06 04:17:13;;;;;;;;;;;5.80;46.50;;;;;;4344458;32;20415;-39
2021/11/06 04:19:39;;;;;;;;;;;5.90;46.70;;;;;;4358712;32;20406;-38
2021/11/06 04:22:05;;;;;;;;;;;5.90;46.80;;;;;;4358888;32;20164;-38
2021/11/06 04:24:34;;;;;;;;;;;5.90;46.90;;;;;;4346154;32;19973;-38
2021/11/06 04:27:00;;;;;;;;;;;5.90;47.10;;;;;;4358847;32;20030;-39
2021/11/06 04:29:26;;;;;;;;;;;5.90;47.10;;;;;;4358273;32;20063;-39
2021/11/06 04:31:53;;;;;;;;;;;5.90;46.90;;;;;;4358249;32;20091;-38
2021/11/06 04:34:19;;;;;;;;;;;5.90;46.90;;;;;;4358350;32;19970;-39
2021/11/06 04:36:46;;;;;;;;;;;5.90;47.20;;;;;;4358247;32;19982;-38
2021/11/06 04:39:12;;;;;;;;;;;5.90;46.80;;;;;;4358358;32;20430;-38
2021/11/06 04:41:38;;;;;;;;;;;5.90;47.00;;;;;;4357863;32;20386;-36
2021/11/06 04:44:04;;;;;;;;;;;5.90;47.00;;;;;;4360491;32;20436;-39
2021/11/06 04:46:31;;;;;;;;;;;5.90;47.20;;;;;;4360951;32;19950;-39
2021/11/06 04:48:57;;;;;;;;;;;5.90;47.20;;;;;;4360597;32;19978;-39
2021/11/06 04:51:23;;;;;;;;;;;5.90;47.30;;;;;;4360610;32;19966;-38
2021/11/06 04:53:49;;;;;;;;;;;5.90;47.20;;;;;;4360542;32;19978;-40
2021/11/06 04:56:16;;;;;;;;;;;6.00;47.20;;;;;;4360621;32;20038;-39
2021/11/06 04:58:42;;;;;;;;;;;6.00;47.60;;;;;;4360551;32;19973;-39
2021/11/06 05:01:08;;;;;;;;;;;6.00;47.60;;;;;;4360741;32;19978;-38
2021/11/06 05:03:34;;;;;;;;;;;6.00;47.70;;;;;;4360295;32;19966;-39
2021/11/06 05:06:00;;;;;;;;;;;6.10;47.70;;;;;;4360829;32;20458;-39
2021/11/06 05:08:27;;;;;;;;;;;6.10;47.50;;;;;;4360565;32;20083;-39
2021/11/06 05:10:53;;;;;;;;;;;6.10;47.80;;;;;;4360229;32;20139;-37
2021/11/06 05:13:19;;;;;;;;;;;6.10;48.10;;;;;;4360511;32;19996;-39
2021/11/06 05:15:45;;;;;;;;;;;6.20;48.20;;;;;;4360283;32;19978;-39
2021/11/06 05:18:13;;;;;;;;;;;6.20;48.20;;;;;;4360356;32;20395;-38
2021/11/06 05:20:42;;;;;;;;;;;6.20;49.10;;;;;;4360371;32;19955;-39
2021/11/06 05:23:08;;;;;;;;;;;6.20;49.40;;;;;;4363740;32;19981;-36
2021/11/06 05:25:34;;;;;;;;;;;6.20;50.40;;;;;;4375518;32;20078;-39
2021/11/06 05:28:00;;;;;;;;;;;6.30;50.90;;;;;;4374701;32;19992;-39
2021/11/06 05:30:27;;;;;;;;;;;6.20;51.00;;;;;;4375010;32;20041;-38
2021/11/06 05:32:53;;;;;;;;;;;6.20;51.70;;;;;;4375225;32;19997;-38
2021/11/06 05:35:19;;;;;;;;;;;6.20;51.80;;;;;;4375174;32;19954;-39
2021/11/06 05:37:45;;;;;;;;;;;6.20;51.60;;;;;;4374474;32;20080;-39
2021/11/06 05:40:12;;;;;;;;;;;6.20;51.90;;;;;;4374507;32;20041;-39
2021/11/06 05:42:38;;;;;;;;;;;6.30;52.10;;;;;;4374927;32;20453;-38
2021/11/06 05:45:05;;;;;;;;;;;6.30;52.00;;;;;;4375241;32;20022;-40
2021/11/06 05:47:31;;;;;;;;;;;6.30;52.10;;;;;;4374594;32;19985;-38
2021/11/06 05:49:57;;;;;;;;;;;6.30;51.80;;;;;;4374717;32;19989;-38
2021/11/06 05:52:24;;;;;;;;;;;6.30;51.80;;;;;;4374467;32;19969;-38
2021/11/06 05:54:50;;;;;;;;;;;6.40;51.80;;;;;;4374461;32;20394;-38
2021/11/06 05:57:16;;;;;;;;;;;6.40;51.70;;;;;;4374065;32;19973;-39
2021/11/06 05:59:42;;;;;;;;;;;6.40;51.40;;;;;;4374381;32;19966;-37
2021/11/06 06:02:08;;;;;;;;;;;6.40;51.60;;;;;;4374946;32;19996;-37
2021/11/06 06:04:34;;;;;;;;;;;6.40;51.60;;;;;;4374930;32;19981;-39
2021/11/06 06:07:03;;;;;;;;;;;6.40;51.60;;;;;;4374175;32;20402;-39
2021/11/06 06:09:29;;;;;;;;;;;6.40;51.60;;;;;;4374464;32;19970;-39
2021/11/06 06:11:55;;;;;;;;;;;6.40;51.80;;;;;;4374545;32;19992;-38
2021/11/06 06:14:21;;;;;;;;;;;6.30;52.10;;;;;;4374381;32;19962;-37
2021/11/06 06:16:48;;;;;;;;;;;6.40;52.50;;;;;;4374275;32;19966;-38
2021/11/06 06:19:14;;;;;;;;;;;6.40;52.80;;;;;;4374665;32;20059;-38
2021/11/06 06:21:40;;;;;;;;;;;6.40;53.20;;;;;;4374079;32;19978;-38
2021/11/06 06:24:06;;;;;;;;;;;6.40;53.70;;;;;;4383595;32;19973;-38
2021/11/06 06:26:33;;;;;;;;;;;6.50;54.50;;;;;;4388844;32;20039;-38
2021/11/06 06:28:59;;;;;;;;;;;6.60;54.70;;;;;;4389071;32;19985;-38
2021/11/06 06:31:27;;;;;;;;;;;6.60;54.90;;;;;;4388975;32;20005;-38
2021/11/06 06:33:53;;;;;;;;;;;6.60;54.80;;;;;;4389131;32;20374;-39
2021/11/06 06:36:20;;;;;;;;;;;6.70;55.10;;;;;;4375147;32;19961;-39
2021/11/06 06:38:46;;;;;;;;;;;6.70;55.30;;;;;;4389300;32;19977;-38
2021/11/06 06:41:12;;;;;;;;;;;6.70;55.40;;;;;;4388419;32;19982;-38
2021/11/06 06:43:38;;;;;;;;;;;6.80;55.40;;;;;;4389218;32;19985;-38
2021/11/06 06:46:05;;;;;;;;;;;6.80;55.20;;;;;;4379712;32;19959;-38
2021/11/06 06:48:31;;;;;;;;;;;6.90;55.20;;;;;;4373549;32;20386;-38
2021/11/06 06:50:57;;;;;;;;;;;6.90;55.20;;;;;;4374089;32;19962;-38
2021/11/06 06:53:23;;;;;;;;;;;6.90;55.20;;;;;;4374172;32;19969;-39
2021/11/06 06:55:50;;;;;;;;;;;7.00;55.10;;;;;;4373670;32;20448;-38
2021/11/06 06:58:16;;;;;;;;;;;7.00;55.10;;;;;;4373388;32;19998;-38
2021/11/06 07:00:42;;;;;;;;;;;7.10;55.10;;;;;;4373595;32;20046;-39
2021/11/06 07:03:09;;;;;;;;;;;7.10;55.10;;;;;;4373903;32;19973;-40
2021/11/06 07:05:35;;;;;;;;;;;7.10;55.00;;;;;;4373253;32;20362;-38
2021/11/06 07:08:04;;;;;;;;;;;7.20;55.20;;;;;;4373605;32;20403;-38
2021/11/06 07:10:30;;;;;;;;;;;7.20;55.20;;;;;;4374008;32;19981;-38
2021/11/06 07:12:56;;;;;;;;;;;7.20;55.40;;;;;;4373526;32;20380;-38
2021/11/06 07:15:22;;;;;;;;;;;7.30;55.30;;;;;;4373354;32;20034;-38
2021/11/06 07:17:48;;;;;;;;;;;7.30;55.30;;;;;;4373559;32;20075;-39
2021/11/06 07:20:16;;;;;;;;;;;7.30;55.40;;;;;;4373805;32;20058;-39
2021/11/06 07:22:42;;;;;;;;;;;7.40;55.40;;;;;;4373286;32;20398;-37
2021/11/06 07:25:08;;;;;;;;;;;7.40;55.60;;;;;;4359430;32;20042;-38
2021/11/06 07:27:34;;;;;;;;;;;7.50;55.60;;;;;;4373349;32;19986;-38
2021/11/06 07:30:01;;;;;;;;;;;7.60;55.50;;;;;;4373414;32;20025;-38
2021/11/06 07:32:27;;;;;;;;;;;7.70;55.20;;;;;;4373302;32;20064;-39
2021/11/06 07:34:53;;;;;;;;;;;7.80;55.30;;;;;;4373115;32;20058;-38
2021/11/06 07:37:19;;;;;;;;;;;7.80;55.30;;;;;;4372801;32;19957;-38
2021/11/06 07:39:46;;;;;;;;;;;7.80;55.10;;;;;;4373263;32;20042;-38
2021/11/06 07:42:12;;;;;;;;;;;7.90;55.10;;;;;;4373132;32;19978;-38
2021/11/06 07:44:38;;;;;;;;;;;7.90;55.00;;;;;;4372906;32;20046;-41
2021/11/06 07:47:04;;;;;;;;;;;7.90;55.70;;;;;;4371519;32;20373;-39
2021/11/06 07:49:30;;;;;;;;;;;8.00;55.10;;;;;;4373174;32;19962;-39
2021/11/06 07:52:00;;;;;;;;;;;8.00;55.30;;;;;;4372610;32;19968;-37
2021/11/06 07:54:27;;;;;;;;;;;8.00;55.40;;;;;;4373242;32;19994;-39
2021/11/06 07:56:53;;;;;;;;;;;8.00;55.50;;;;;;4373239;32;19981;-40
2021/11/06 07:59:19;;;;;;;;;;;8.10;55.50;;;;;;4372725;32;20394;-38
2021/11/06 08:01:45;;;;;;;;;;;8.10;55.20;;;;;;4372014;32;19994;-38
2021/11/06 08:04:12;;;;;;;;;;;8.10;55.00;;;;;;4373374;32;19998;-39
2021/11/06 08:06:38;;;;;;;;;;;8.10;55.00;;;;;;4373181;32;19981;-38
2021/11/06 08:09:05;;;;;;;;;;;8.20;55.00;;;;;;4373186;32;19979;-40
2021/11/06 08:11:31;;;;;;;;;;;8.20;54.70;;;;;;4371309;32;19974;-39
2021/11/06 08:13:58;;;;;;;;;;;8.20;54.60;;;;;;4373303;32;19969;-38
2021/11/06 08:16:24;;;;;;;;;;;8.20;54.30;;;;;;4373134;32;19992;-38
2021/11/06 08:18:50;;;;;;;;;;;8.20;54.50;;;;;;4372973;32;19965;-39
2021/11/06 08:21:17;;;;;;;;;;;8.20;54.50;;;;;;4373521;32;19993;-39
2021/11/06 08:23:43;;;;;;;;;;;8.20;54.70;;;;;;4380651;32;19984;-38
2021/11/06 08:26:10;;;;;;;;;;;8.30;54.80;;;;;;4387626;32;19973;-38
2021/11/06 08:28:36;;;;;;;;;;;8.30;54.20;;;;;;4388064;32;19962;-38
2021/11/06 08:31:02;;;;;;;;;;;8.30;53.80;;;;;;4388164;32;19966;-38
2021/11/06 08:33:32;;;;;;;;;;;8.30;53.70;;;;;;4388037;32;20125;-37
2021/11/06 08:35:59;;;;;;;;;;;8.30;53.40;;;;;;4387963;32;19958;-37
2021/11/06 08:38:26;;;;;;;;;;;8.30;53.20;;;;;;4387882;32;19962;-38
2021/11/06 08:40:53;;;;;;;;;;;8.30;53.10;;;;;;4388002;32;19968;-38
2021/11/06 08:43:19;;;;;;;;;;;8.40;53.00;;;;;;4388010;32;20057;-36
2021/11/06 08:45:46;;;;;;;;;;;8.50;52.70;;;;;;4380532;32;19989;-38
2021/11/06 08:48:13;;;;;;;;;;;8.50;52.40;;;;;;4372710;32;20002;-38
2021/11/06 08:50:40;;;;;;;;;;;8.60;52.30;;;;;;4340086;32;20115;-39
2021/11/06 08:53:06;;;;;;;;;;;8.60;51.90;;;;;;4328303;33;20042;-37
2021/11/06 08:55:32;;;;;;;;;;;8.70;51.60;;;;;;4328588;33;20563;-38
2021/11/06 08:57:59;;;;;;;;;;;8.70;51.40;;;;;;4310631;33;20496;-38
2021/11/06 09:00:34;;;;;;;;;;;8.80;51.30;;;;;;4310804;33;20495;-39
2021/11/06 09:03:08;;;;;;;;;;;8.80;51.00;;;;;;4312190;33;19971;-39
2021/11/06 09:05:34;;;;;;;;;;;8.90;51.20;;;;;;4298654;33;20093;-39
2021/11/06 09:08:01;;;;;;;;;;;8.90;51.40;;;;;;4299058;33;19983;-38
2021/11/06 09:10:27;;;;;;;;;;;9.00;51.30;;;;;;4298704;33;19983;-39
2021/11/06 09:12:53;;;;;;;;;;;9.00;51.20;;;;;;4298969;33;19994;-38
2021/11/06 09:15:20;;;;;;;;;;;9.00;51.10;;;;;;4298774;33;19972;-39
2021/11/06 09:17:46;;;;;;;;;;;9.10;51.30;;;;;;4299515;33;20066;-39
2021/11/06 09:20:12;;;;;;;;;;;9.10;51.30;;;;;;4298735;33;20365;-39
2021/11/06 09:22:39;;;;;;;;;;;9.10;51.40;;;;;;4297996;33;19968;-39
2021/11/06 09:25:07;;;;;;;;;;;9.20;51.60;;;;;;4298691;33;19987;-39
2021/11/06 09:27:34;;;;;;;;;;;9.20;51.80;;;;;;4303043;33;19990;-37
2021/11/06 09:30:00;;;;;;;;;;;9.30;51.90;;;;;;4313156;33;20044;-39
2021/11/06 09:32:26;;;;;;;;;;;9.30;52.10;;;;;;4312779;33;20380;-38
2021/11/06 09:34:52;;;;;;;;;;;9.30;52.20;;;;;;4321010;33;19973;-37
2021/11/06 09:37:19;;;;;;;;;;;9.40;52.10;;;;;;4345920;32;20123;-38
2021/11/06 09:39:45;;;;;;;;;;;9.40;51.80;;;;;;4359635;32;20064;-38
2021/11/06 09:42:12;;;;;;;;;;;9.50;51.70;;;;;;4359941;32;19984;-38
2021/11/06 09:44:38;;;;;;;;;;;9.50;51.70;;;;;;4360428;32;20403;-38
2021/11/06 09:47:08;;;;;;;;;;;9.50;51.70;;;;;;4356735;32;20052;-39
2021/11/06 09:49:36;;;;;;;;;;;9.50;51.90;;;;;;4357411;32;20042;-40
2021/11/06 09:52:03;;;;;;;;;;;9.50;52.20;;;;;;4356966;32;20731;-38
2021/11/06 09:54:29;;;;;;;;;;;9.50;52.30;;;;;;4357014;32;20495;-38
2021/11/06 09:56:55;;;;;;;;;;;9.60;52.20;;;;;;4357024;32;19982;-37
2021/11/06 09:59:22;;;;;;;;;;;9.60;52.50;;;;;;4344974;32;20035;-38
2021/11/06 10:01:48;;;;;;;;;;;9.60;52.70;;;;;;4341902;33;20472;-39
2021/11/06 10:04:15;;;;;;;;;;;9.60;52.80;;;;;;4342183;33;20060;-39
2021/11/06 10:06:44;;;;;;;;;;;9.70;52.80;;;;;;4341860;33;19968;-40
2021/11/06 10:09:12;;;;;;;;;;;9.70;53.10;;;;;;4341828;33;19969;-39
2021/11/06 10:11:39;;;;;;;;;;;9.80;53.30;;;;;;4341910;33;20078;-39
2021/11/06 10:14:10;;;;;;;;;;;9.80;53.20;;;;;;4329717;33;20007;-39
2021/11/06 10:16:38;;;;;;;;;;;9.90;53.30;;;;;;4342021;33;19963;-39
2021/11/06 10:19:09;;;;;;;;;;;10.00;53.20;;;;;;4343655;32;20047;-41
2021/11/06 10:21:36;;;;;;;;;;;10.20;52.90;;;;;;4357393;32;19971;-39
2021/11/06 10:24:02;;;;;;;;;;;10.30;52.20;;;;;;4365813;32;20038;-39
2021/11/06 10:26:29;;;;;;;;;;;10.40;52.50;;;;;;4371359;32;19968;-39
2021/11/06 10:29:17;;;;;;;;;;;10.60;51.60;;;;;;4371952;32;19990;-37
2021/11/06 10:31:55;;;;;;;;;;;10.70;50.90;;;;;;4371472;32;19990;-39
2021/11/06 10:34:22;;;;;;;;;;;10.90;50.10;;;;;;4371759;32;19966;-39
2021/11/06 10:37:02;;;;;;;;;;;11.00;49.40;;;;;;4358967;32;20131;-38
2021/11/06 10:39:28;;;;;;;;;;;11.10;48.80;;;;;;4360433;32;20056;-38
2021/11/06 10:42:07;;;;;;;;;;;11.20;47.40;;;;;;4374358;32;19969;-38
2021/11/06 10:44:34;;;;;;;;;;;11.30;46.70;;;;;;4361784;32;20446;-39
2021/11/06 10:47:00;;;;;;;;;;;11.40;46.30;;;;;;4373445;32;20379;-38
2021/11/06 10:49:36;;;;;;;;;;;11.50;46.00;;;;;;4373898;32;20080;-37
2021/11/06 10:52:10;;;;;;;;;;;11.50;45.50;;;;;;4373863;32;19997;-39
2021/11/06 10:54:58;;;;;;;;;;;11.60;45.10;;;;;;4373934;32;19978;-39
2021/11/06 10:57:25;;;;;;;;;;;11.70;44.70;;;;;;4374367;32;19993;-39
2021/11/06 11:00:26;;;;;;;;;;;11.70;44.00;;;;;;4341170;33;19967;-39
2021/11/06 11:02:52;;;;;;;;;;;11.80;44.00;;;;;;4239817;33;19995;-38
2021/11/06 11:05:32;;;;;;;;;;;11.80;43.80;;;;;;4240150;33;19984;-39
2021/11/06 11:08:13;;;;;;;;;;;11.90;43.60;;;;;;4240668;33;19973;-38
2021/11/06 11:10:40;;;;;;;;;;;12.00;43.20;;;;;;4240260;33;20007;-39
2021/11/06 11:13:14;;;;;;;;;;;12.00;42.90;;;;;;4240330;33;20019;-40
2021/11/06 11:15:43;;;;;;;;;;;12.10;42.30;;;;;;4240151;33;20056;-39
2021/11/06 11:18:28;;;;;;;;;;;12.10;42.40;;;;;;4240390;33;20080;-39
2021/11/06 11:20:59;;;;;;;;;;;12.20;42.00;;;;;;4240753;33;19966;-38
2021/11/06 11:23:26;;;;;;;;;;;12.20;41.60;;;;;;4221867;33;20430;-39
2021/11/06 11:25:52;;;;;;;;;;;12.30;41.30;;;;;;4242275;33;20050;-39
2021/11/06 11:28:18;;;;;;;;;;;12.30;41.20;;;;;;4242133;33;20003;-38
2021/11/06 11:30:44;;;;;;;;;;;12.40;41.20;;;;;;4266899;33;19997;-39
2021/11/06 11:33:11;;;;;;;;;;;12.40;41.20;;;;;;4282455;33;19968;-38
2021/11/06 11:35:38;;;;;;;;;;;12.50;40.70;;;;;;4282682;33;19972;-39
2021/11/06 11:38:04;;;;;;;;;;;12.50;40.00;;;;;;4329172;33;19974;-39
2021/11/06 11:40:32;;;;;;;;;;;12.50;40.10;;;;;;4367749;32;19972;-39
2021/11/06 11:43:06;;;;;;;;;;;12.50;40.00;;;;;;4374984;32;19988;-39
2021/11/06 11:45:32;;;;;;;;;;;12.50;39.90;;;;;;4353467;32;20036;-41
2021/11/06 11:48:11;;;;;;;;;;;12.50;39.90;;;;;;4358497;32;20044;-42
2021/11/06 11:50:40;;;;;;;;;;;12.50;39.50;;;;;;4357973;32;20403;-40
2021/11/06 11:53:07;;;;;;;;;;;12.50;39.30;;;;;;4358233;32;20408;-41
2021/11/06 11:55:35;;;;;;;;;;;12.50;39.20;;;;;;4358299;32;19966;-41
2021/11/06 11:58:16;;;;;;;;;;;12.50;39.30;;;;;;4358334;32;19981;-38
2021/11/06 12:00:50;;;;;;;;;;;12.50;39.30;;;;;;4358155;32;19981;-40
2021/11/06 12:03:27;;;;;;;;;;;12.50;39.00;;;;;;4358102;32;19974;-39
2021/11/06 12:05:54;;;;;;;;;;;12.40;38.50;;;;;;4356584;32;20450;-39
2021/11/06 12:08:25;;;;;;;;;;;12.40;38.80;;;;;;4358327;32;20005;-40
2021/11/06 12:10:59;;;;;;;;;;;12.30;38.80;;;;;;4358284;32;20075;-41
2021/11/06 12:16:07;;;;;;;;;;;12.30;39.50;;;;;;4358193;32;20045;-41
2021/11/06 12:18:33;;;;;;;;;;;12.30;39.40;;;;;;4358201;32;20371;-39
2021/11/06 12:21:15;;;;;;;;;;;12.30;38.40;;;;;;4358192;32;19978;-38
2021/11/06 12:24:11;;;;;;;;;;;12.30;38.50;;;;;;4364384;32;19973;-39
2021/11/06 12:26:59;;;;;;;;;;;12.20;38.40;;;;;;4359975;32;19963;-39
2021/11/06 12:29:29;;;;;;;;;;;12.20;38.40;;;;;;4372636;32;20359;-40
2021/11/06 12:31:57;;;;;;;;;;;12.20;38.00;;;;;;4372863;32;19962;-39
2021/11/06 12:34:31;;;;;;;;;;;12.10;38.20;;;;;;4372857;32;19966;-40
2021/11/06 12:36:57;;;;;;;;;;;12.00;37.90;;;;;;4372884;32;19962;-39
2021/11/06 12:39:46;;;;;;;;;;;12.00;37.90;;;;;;4375112;32;19968;-39
2021/11/06 12:42:17;;;;;;;;;;;11.90;37.70;;;;;;4375232;32;19981;-39
2021/11/06 12:45:01;;;;;;;;;;;11.90;37.50;;;;;;4375196;32;19962;-38
2021/11/06 12:47:28;;;;;;;;;;;11.80;37.20;;;;;;4375628;32;20406;-39
2021/11/06 12:49:54;;;;;;;;;;;11.80;37.40;;;;;;4375833;32;19966;-39
2021/11/06 12:52:25;;;;;;;;;;;11.70;37.20;;;;;;4373976;32;19973;-39
2021/11/06 12:54:58;;;;;;;;;;;11.70;37.20;;;;;;4375688;32;19974;-39
2021/11/06 12:57:39;;;;;;;;;;;11.60;37.20;;;;;;4375290;32;20005;-39
2021/11/06 13:00:10;;;;;;;;;;;11.50;37.10;;;;;;4375185;32;20034;-39
2021/11/06 13:02:50;;;;;;;;;;;11.50;37.20;;;;;;4375235;32;20374;-39
2021/11/06 13:05:16;;;;;;;;;;;11.40;37.40;;;;;;4375222;32;19982;-39
2021/11/06 13:07:43;;;;;;;;;;;11.30;37.90;;;;;;4374989;32;19980;-39
2021/11/06 13:10:21;;;;;;;;;;;11.20;38.20;;;;;;4373132;32;19997;-39
2021/11/06 13:13:06;;;;;;;;;;;11.20;38.10;;;;;;4374559;32;20424;-38
2021/11/06 13:15:39;;;;;;;;;;;11.20;38.10;;;;;;4375226;32;19958;-39
2021/11/06 13:18:08;;;;;;;;;;;11.10;38.20;;;;;;4375053;32;19973;-37
2021/11/06 13:20:34;;;;;;;;;;;11.10;38.10;;;;;;4375506;32;20001;-39
2021/11/06 13:23:00;;;;;;;;;;;11.10;38.20;;;;;;4375902;32;20015;-39
2021/11/06 13:25:34;;;;;;;;;;;11.10;38.20;;;;;;4390824;32;20043;-40
2021/11/06 13:28:12;;;;;;;;;;;11.10;38.20;;;;;;4390589;32;19988;-40
2021/11/06 13:30:51;;;;;;;;;;;11.00;38.00;;;;;;4390058;32;19969;-39
2021/11/06 13:33:37;;;;;;;;;;;11.00;38.10;;;;;;4390301;32;19972;-38
2021/11/06 13:36:08;;;;;;;;;;;11.00;37.70;;;;;;4390360;32;20377;-41
2021/11/06 13:38:41;;;;;;;;;;;11.00;38.50;;;;;;4390671;32;20362;-39
2021/11/06 13:41:09;;;;;;;;;;;11.00;38.60;;;;;;4390601;32;19974;-39
2021/11/06 13:43:57;;;;;;;;;;;11.00;38.40;;;;;;4389688;32;20030;-39
2021/11/06 13:46:43;;;;;;;;;;;11.00;38.50;;;;;;4378375;32;19976;-41
2021/11/06 13:49:16;;;;;;;;;;;11.00;38.70;;;;;;4374704;32;19966;-39
2021/11/06 13:51:49;;;;;;;;;;;11.00;38.60;;;;;;4360649;32;20362;-39
2021/11/06 13:54:41;;;;;;;;;;;11.00;38.30;;;;;;4374669;32;19994;-39
2021/11/06 13:57:12;;;;;;;;;;;11.00;38.10;;;;;;4372731;32;20433;-37
2021/11/06 13:59:47;;;;;;;;;;;11.00;38.30;;;;;;4374271;32;20054;-39
2021/11/06 14:02:26;;;;;;;;;;;11.00;38.50;;;;;;4360526;32;19962;-39
2021/11/06 14:04:56;;;;;;;;;;;11.00;38.30;;;;;;4360740;32;20047;-39
2021/11/06 14:07:31;;;;;;;;;;;11.00;38.60;;;;;;4374473;32;20423;-39
2021/11/06 14:10:07;;;;;;;;;;;11.00;38.80;;;;;;4374286;32;21043;-39
2021/11/06 14:12:43;;;;;;;;;;;11.00;38.70;;;;;;4374500;32;19965;-40
2021/11/06 14:15:13;;;;;;;;;;;11.10;38.60;;;;;;4374357;32;19990;-40
2021/11/06 14:17:43;;;;;;;;;;;11.00;38.50;;;;;;4374805;32;19958;-38
2021/11/06 14:20:10;;;;;;;;;;;11.10;38.20;;;;;;4374402;32;19966;-37
2021/11/06 14:22:44;;;;;;;;;;;11.10;38.20;;;;;;4374204;32;19993;-39
2021/11/06 14:25:23;;;;;;;;;;;11.10;38.30;;;;;;4374545;32;19996;-38
2021/11/06 14:28:20;;;;;;;;;;;11.10;38.00;;;;;;4374095;32;19966;-38
2021/11/06 14:30:54;;;;;;;;;;;11.00;38.10;;;;;;4360409;32;19974;-38
2021/11/06 14:33:29;;;;;;;;;;;11.00;38.00;;;;;;4374269;32;20506;-38
2021/11/06 14:36:09;;;;;;;;;;;11.00;38.20;;;;;;4374331;32;20043;-38